Time;durP1;ratioP1;P1;durP2;ratioP2;P2;SDS_P1;SDS_P2;PMS_P1;PMS_P2;Temp;Humidity;BMP_temperature;BMP_pressure;BME280_temperature;BME280_humidity;BME280_pressure;Samples;Min_cycle;Max_cycle;Signal;HPM_P1;HPM_P2
2021/11/28 00:00:45;;;;;;;75.00;29.23;;;;;;;2.06;100.00;99507.63;5088647;28;20070;-74
2021/11/28 00:03:17;;;;;;;73.35;26.75;;;;;;;2.23;100.00;99531.59;5087782;28;20467;-74
2021/11/28 00:05:47;;;;;;;74.20;27.75;;;;;;;2.08;100.00;99487.25;5070364;28;20123;-74
2021/11/28 00:08:37;;;;;;;67.90;27.15;;;;;;;2.05;100.00;99468.25;5087374;28;20035;-74
2021/11/28 00:15:53;;;;;;;67.53;26.98;;;;;;;1.96;100.00;99409.38;5091484;28;20062;-74
2021/11/28 00:18:19;;;;;;;74.78;28.02;;;;;;;1.95;100.00;99402.47;5074808;28;20047;-73
2021/11/28 00:20:45;;;;;;;78.63;28.75;;;;;;;1.96;100.00;99401.47;5091555;28;20028;-74
2021/11/28 00:23:10;;;;;;;70.03;27.27;;;;;;;1.93;100.00;99385.97;5074594;28;20036;-73
2021/11/28 00:25:36;;;;;;;84.00;28.42;;;;;;;1.90;100.00;99383.63;5074376;28;20032;-73
2021/11/28 00:28:01;;;;;;;67.73;27.40;;;;;;;1.86;100.00;99372.53;5091518;28;20088;-74
2021/11/28 00:30:28;;;;;;;76.40;26.90;;;;;;;1.92;100.00;99384.31;5074457;28;20322;-74
2021/11/28 00:32:55;;;;;;;71.00;29.15;;;;;;;1.89;100.00;99377.50;5074416;28;20036;-74
2021/11/28 00:35:21;;;;;;;55.22;24.90;;;;;;;1.87;100.00;99373.34;5073910;28;20412;-74
2021/11/28 00:37:47;;;;;;;62.72;24.92;;;;;;;1.86;100.00;99371.72;5092235;28;20046;-74
2021/11/28 00:40:13;;;;;;;63.90;25.60;;;;;;;1.88;100.00;99380.31;5091245;28;20028;-74
2021/11/28 00:42:39;;;;;;;;;;;;;;;1.96;100.00;99395.38;5092723;28;20051;-74
2021/11/28 00:45:05;;;;;;;62.80;25.42;;;;;;;1.90;100.00;99387.09;5091876;28;19911;-74
2021/11/28 00:47:31;;;;;;;68.80;25.80;;;;;;;1.92;100.00;99396.63;5074228;28;20055;-74
2021/11/28 00:50:06;;;;;;;64.07;25.52;;;;;;;1.94;100.00;99397.31;5090926;28;20466;-74
2021/11/28 00:52:32;;;;;;;69.05;27.98;;;;;;;1.95;100.00;99415.63;5091730;28;20036;-73
2021/11/28 00:54:59;;;;;;;67.55;27.10;;;;;;;1.94;100.00;99407.84;5090256;28;20071;-74
2021/11/28 00:57:25;;;;;;;73.18;28.90;;;;;;;1.85;100.00;99407.72;5091840;28;20095;-74
2021/11/28 00:59:51;;;;;;;66.93;27.27;;;;;;;1.91;100.00;99430.03;5090911;28;20513;-74
2021/11/28 01:02:18;;;;;;;71.32;28.05;;;;;;;1.89;100.00;99426.69;5090863;28;20416;-74
2021/11/28 01:04:44;;;;;;;73.93;29.52;;;;;;;1.88;100.00;99430.31;5091508;28;20089;-74
2021/11/28 01:07:10;;;;;;;74.97;29.13;;;;;;;1.93;100.00;99441.25;5090601;28;20071;-74
2021/11/28 01:09:36;;;;;;;68.28;27.77;;;;;;;1.80;100.00;99417.00;5090624;28;20086;-74
2021/11/28 01:12:03;;;;;;;76.57;27.52;;;;;;;1.80;100.00;99430.16;5091626;28;20101;-74
2021/11/28 01:14:28;;;;;;;76.97;29.27;;;;;;;1.86;100.00;99443.59;5090180;28;20038;-74
2021/11/28 01:16:54;;;;;;;73.13;28.05;;;;;;;1.82;100.00;99441.38;5090418;28;20028;-74
2021/11/28 01:19:20;;;;;;;70.10;26.60;;;;;;;1.80;100.00;99438.06;5090533;28;20369;-74
2021/11/28 01:21:57;;;;;;;67.03;25.83;;;;;;;1.85;100.00;99449.84;5090136;28;20509;-74
2021/11/28 01:24:23;;;;;;;71.35;29.20;;;;;;;1.83;100.00;99450.94;5090855;28;20056;-74
2021/11/28 01:26:50;;;;;;;64.93;25.50;;;;;;;1.83;100.00;99450.94;5090472;28;20106;-74
2021/11/28 01:29:16;;;;;;;74.78;28.48;;;;;;;1.81;100.00;99445.81;5073360;28;20316;-74
2021/11/28 01:31:41;;;;;;;70.65;27.98;;;;;;;1.79;100.00;99439.03;5090274;28;20047;-74
2021/11/28 01:34:08;;;;;;;75.18;26.58;;;;;;;1.66;100.00;99416.47;5090825;28;20036;-74
2021/11/28 01:36:35;;;;;;;67.45;27.08;;;;;;;1.77;100.00;99433.06;5090030;28;20066;-74
2021/11/28 01:39:01;;;;;;;65.78;27.00;;;;;;;1.77;100.00;99433.06;5090006;28;20040;-74
2021/11/28 01:41:27;;;;;;;66.22;26.98;;;;;;;1.75;100.00;99432.38;5091056;28;20484;-74
2021/11/28 01:43:53;;;;;;;;;;;;;;;1.83;100.00;99450.94;5091036;28;20563;-74
2021/11/28 01:46:20;;;;;;;64.55;26.88;;;;;;;1.79;100.00;99439.84;5090976;28;19912;-74
2021/11/28 01:48:46;;;;;;;64.55;27.17;;;;;;;1.82;100.00;99446.66;5073104;28;20447;-74
2021/11/28 01:51:12;;;;;;;67.38;28.23;;;;;;;1.64;100.00;99405.25;5089799;28;20465;-74
2021/11/28 01:53:38;;;;;;;55.60;26.25;;;;;;;1.72;100.00;99404.53;5089283;28;20047;-74
2021/11/28 01:56:04;;;;;;;60.33;26.05;;;;;;;1.77;100.00;99401.50;5089323;28;20044;-73
2021/11/28 01:58:35;;;;;;;63.38;26.00;;;;;;;1.75;100.00;99392.91;5089801;28;20038;-74
2021/11/28 02:01:06;;;;;;;60.33;25.45;;;;;;;1.79;100.00;99395.13;5089701;28;20047;-74
2021/11/28 02:03:36;;;;;;;50.53;23.10;;;;;;;1.73;100.00;99374.63;5089699;28;20430;-74
2021/11/28 02:06:02;;;;;;;52.58;24.63;;;;;;;1.72;100.00;99365.06;5090589;28;20024;-74
2021/11/28 02:08:28;;;;;;;50.78;24.17;;;;;;;1.72;100.00;99343.19;5090465;28;20096;-74
2021/11/28 02:10:54;;;;;;;47.88;21.48;;;;;;;1.65;100.00;99327.13;5090471;28;20032;-74
2021/11/28 02:13:22;;;;;;;49.30;22.33;;;;;;;1.72;100.00;99335.31;5091417;28;20028;-74
2021/11/28 02:15:47;;;;;;;50.40;23.73;;;;;;;1.65;100.00;99322.69;5091034;28;20369;-74
2021/11/28 02:18:13;;;;;;;46.35;21.80;;;;;;;1.69;100.00;99326.72;5090414;28;20039;-74
2021/11/28 02:20:42;;;;;;;51.20;22.00;;;;;;;1.75;100.00;99321.84;5090222;28;20036;-74
2021/11/28 02:23:08;;;;;;;47.38;21.38;;;;;;;1.64;100.00;99299.19;5090195;28;20040;-74
2021/11/28 02:25:33;;;;;;;49.42;21.95;;;;;;;1.69;100.00;99303.03;5090269;28;20039;-74
2021/11/28 02:27:59;;;;;;;46.35;21.70;;;;;;;1.61;100.00;99286.28;5090205;28;20132;-74
2021/11/28 02:30:25;;;;;;;50.00;22.50;;;;;;;1.60;100.00;99290.72;5073427;28;20028;-74
2021/11/28 02:32:56;;;;;;;50.00;22.88;;;;;;;1.65;100.00;99287.66;5073596;28;20040;-74
2021/11/28 02:35:23;;;;;;;50.80;21.55;;;;;;;1.57;100.00;99272.59;5089337;28;20151;-74
2021/11/28 02:37:49;;;;;;;51.55;22.15;;;;;;;1.62;100.00;99283.53;5090039;28;20032;-74
2021/11/28 02:40:19;;;;;;;;;;;;;;;1.59;100.00;99278.56;5073624;28;20049;-74
2021/11/28 02:42:46;;;;;;;40.20;19.50;;;;;;;1.48;100.00;99265.56;5090029;28;20341;-74
2021/11/28 02:45:13;;;;;;;47.97;20.60;;;;;;;1.60;100.00;99293.34;5089478;28;20028;-74
2021/11/28 02:47:41;;;;;;;52.08;22.75;;;;;;;1.53;100.00;99279.09;5073155;28;20457;-74
2021/11/28 02:50:08;;;;;;;45.30;20.40;;;;;;;1.66;100.00;99303.31;5089657;28;20093;-74
2021/11/28 02:52:34;;;;;;;41.95;20.10;;;;;;;1.62;100.00;99293.22;5088527;28;20047;-74
2021/11/28 02:54:59;;;;;;;39.17;19.08;;;;;;;1.58;100.00;99276.88;5072325;28;20040;-74
2021/11/28 02:57:26;;;;;;;45.80;21.45;;;;;;;1.56;100.00;99286.72;5072773;28;20040;-74
2021/11/28 02:59:52;;;;;;;42.75;21.05;;;;;;;1.49;100.00;99277.72;5089607;28;20032;-74
2021/11/28 03:02:18;;;;;;;48.53;22.27;;;;;;;1.43;100.00;99268.59;5089399;28;20115;-74
2021/11/28 03:05:07;;;;;;;49.80;21.67;;;;;;;1.53;100.00;99284.38;5090027;28;20496;-74
2021/11/28 03:07:32;;;;;;;46.00;20.98;;;;;;;1.52;100.00;99284.50;5072565;28;20036;-74
2021/11/28 03:09:58;;;;;;;43.47;19.70;;;;;;;1.63;100.00;99295.69;5072616;28;20460;-74
2021/11/28 03:12:24;;;;;;;44.15;20.48;;;;;;;1.47;100.00;99259.47;5072556;28;20035;-74
2021/11/28 03:14:49;;;;;;;39.95;18.95;;;;;;;1.46;100.00;99255.16;5088309;28;20036;-74
2021/11/28 03:17:15;;;;;;;35.17;17.10;;;;;;;1.36;100.00;99235.94;5088691;28;20038;-74
2021/11/28 03:19:41;;;;;;;41.67;18.13;;;;;;;1.40;100.00;99236.47;5089222;28;20097;-74
2021/11/28 03:22:08;;;;;;;40.45;17.77;;;;;;;1.35;100.00;99221.13;5089965;28;20077;-74
2021/11/28 03:24:33;;;;;;;39.17;17.95;;;;;;;1.39;100.00;99230.41;5071944;28;20403;-74
2021/11/28 03:26:59;;;;;;;40.00;17.73;;;;;;;1.41;100.00;99223.19;5089131;28;20039;-74
2021/11/28 03:29:27;;;;;;;41.17;20.20;;;;;;;1.34;100.00;99205.50;5072272;28;20081;-74
2021/11/28 03:32:07;;;;;;;41.53;18.90;;;;;;;1.36;100.00;99212.28;5089918;28;20270;-74
2021/11/28 03:34:36;;;;;;;44.40;19.10;;;;;;;1.35;100.00;99217.66;5088743;28;20355;-74
2021/11/28 03:37:08;;;;;;;43.65;18.42;;;;;;;1.33;100.00;99214.34;5088928;28;20112;-74
2021/11/28 03:39:34;;;;;;;47.83;20.38;;;;;;;1.27;100.00;99211.31;5072079;28;20122;-74
2021/11/28 03:42:06;;;;;;;44.90;20.20;;;;;;;1.35;100.00;99231.63;5072232;28;20356;-74
2021/11/28 03:44:33;;;;;;;44.55;21.17;;;;;;;1.38;100.00;99241.03;5071940;28;20461;-74
2021/11/28 03:47:09;;;;;;;;;;;;;;;1.39;100.00;99250.59;5073541;28;20031;-74
2021/11/28 03:49:35;;;;;;;50.90;21.67;;;;;;;1.36;100.00;99254.34;5072025;28;19916;-74
2021/11/28 03:52:03;;;;;;;47.97;20.98;;;;;;;1.36;100.00;99241.19;5088674;28;20062;-74
2021/11/28 03:54:29;;;;;;;52.30;21.20;;;;;;;1.40;100.00;99252.25;5088225;28;20050;-74
2021/11/28 03:56:55;;;;;;;51.42;21.85;;;;;;;1.21;100.00;99211.03;5071803;28;20185;-74
2021/11/28 03:59:23;;;;;;;46.17;19.98;;;;;;;1.26;100.00;99230.69;5072178;28;20039;-73
2021/11/28 04:01:48;;;;;;;43.27;19.57;;;;;;;1.32;100.00;99239.00;5089596;28;20058;-74
2021/11/28 04:04:15;;;;;;;53.17;22.27;;;;;;;1.31;100.00;99237.31;5088159;28;20351;-74
2021/11/28 04:07:04;;;;;;;47.45;21.90;;;;;;;1.24;100.00;99216.84;5089116;28;20059;-74
2021/11/28 04:09:31;;;;;;;52.20;21.92;;;;;;;1.22;100.00;99218.78;5088650;28;20074;-74
2021/11/28 04:11:58;;;;;;;45.88;21.55;;;;;;;1.15;100.00;99204.56;5071988;28;20118;-74
2021/11/28 04:14:23;;;;;;;51.95;23.70;;;;;;;1.19;100.00;99226.94;5088326;28;20127;-74
2021/11/28 04:16:48;;;;;;;53.40;22.80;;;;;;;1.28;100.00;99243.69;5088465;28;20036;-74
2021/11/28 04:19:14;;;;;;;45.08;22.27;;;;;;;1.24;100.00;99247.56;5088529;28;20093;-74
2021/11/28 04:21:45;;;;;;;48.95;22.25;;;;;;;1.19;100.00;99234.81;5088479;28;20081;-74
2021/11/28 04:24:11;;;;;;;55.15;22.63;;;;;;;1.19;100.00;99231.38;5088174;28;20047;-74
2021/11/28 04:26:39;;;;;;;56.17;23.58;;;;;;;1.13;100.00;99211.75;5071787;28;20062;-74
2021/11/28 04:29:04;;;;;;;43.17;20.95;;;;;;;1.08;100.00;99203.44;5071619;28;20055;-74
2021/11/28 04:31:32;;;;;;;53.60;23.73;;;;;;;1.12;100.00;99217.97;5088460;28;20024;-74
2021/11/28 04:33:57;;;;;;;56.13;22.33;;;;;;;1.22;100.00;99250.34;5088187;28;20135;-74
2021/11/28 04:36:23;;;;;;;50.08;22.50;;;;;;;1.21;100.00;99238.16;5088431;28;20043;-74
2021/11/28 04:38:49;;;;;;;60.40;24.55;;;;;;;1.18;100.00;99248.97;5088424;28;20082;-74
2021/11/28 04:41:15;;;;;;;48.25;21.80;;;;;;;1.35;100.00;99291.28;5088406;28;20040;-74
2021/11/28 04:43:46;;;;;;;56.08;23.45;;;;;;;1.25;100.00;99271.09;5087937;28;20047;-74
2021/11/28 04:46:11;;;;;;;50.25;23.42;;;;;;;1.24;100.00;99263.34;5071539;28;20091;-74
2021/11/28 04:48:37;;;;;;;51.17;21.15;;;;;;;1.34;100.00;99281.75;5088287;28;20046;-74
2021/11/28 04:51:14;;;;;;;48.13;21.08;;;;;;;1.30;100.00;99277.75;5088356;28;20020;-74
2021/11/28 04:53:40;;;;;;;47.85;19.83;;;;;;;1.23;100.00;99262.50;5087709;28;20100;-74
2021/11/28 04:56:05;;;;;;;44.25;19.27;;;;;;;1.38;100.00;99296.28;5071423;28;20043;-74
2021/11/28 04:58:31;;;;;;;45.60;19.48;;;;;;;1.26;100.00;99271.91;5075152;28;20036;-74
2021/11/28 05:00:57;;;;;;;46.03;20.42;;;;;;;1.21;100.00;99253.94;5075127;28;20039;-74
2021/11/28 05:03:22;;;;;;;40.08;18.50;;;;;;;1.22;100.00;99255.59;5091931;28;20475;-74
2021/11/28 05:06:06;;;;;;;45.72;19.63;;;;;;;1.38;100.00;99283.13;5093105;28;20051;-74
2021/11/28 05:09:10;;;;;;;44.90;19.13;;;;;;;1.41;100.00;99282.84;5086096;28;20105;-74
2021/11/28 05:11:37;;;;;;;45.17;19.90;;;;;;;1.39;100.00;99283.00;5091807;28;20032;-74
2021/11/28 05:14:03;;;;;;;44.27;20.97;;;;;;;1.47;100.00;99300.69;5091599;28;20027;-74
2021/11/28 05:16:29;;;;;;;41.63;19.50;;;;;;;1.33;100.00;99275.66;5091663;28;20286;-74
2021/11/28 05:19:11;;;;;;;43.40;20.08;;;;;;;1.30;100.00;99265.41;5091741;28;20050;-74
2021/11/28 05:21:56;;;;;;;;;;;;;;;1.30;100.00;99264.59;5092935;28;20059;-74
2021/11/28 05:24:22;;;;;;;43.95;19.02;;;;;;;1.30;100.00;99273.31;5074381;28;19915;-74
2021/11/28 05:26:50;;;;;;;45.03;20.17;;;;;;;1.38;100.00;99296.28;5091587;28;20032;-74
2021/11/28 05:29:18;;;;;;;53.58;21.58;;;;;;;1.39;100.00;99304.03;5091219;28;20028;-74
2021/11/28 05:31:45;;;;;;;47.40;18.90;;;;;;;1.41;100.00;99315.25;5074730;28;20093;-74
2021/11/28 05:34:34;;;;;;;46.28;19.48;;;;;;;1.49;100.00;99343.47;5081476;28;20046;-74
2021/11/28 05:37:29;;;;;;;41.55;19.17;;;;;;;1.45;100.00;99344.72;5091388;28;20535;-74
2021/11/28 05:40:09;;;;;;;48.05;18.55;;;;;;;1.42;100.00;99329.22;5091325;28;20027;-74
2021/11/28 05:42:35;;;;;;;47.80;20.65;;;;;;;1.36;100.00;99322.72;5092065;28;20539;-74
2021/11/28 05:45:03;;;;;;;42.63;18.35;;;;;;;1.40;100.00;99345.13;5090779;28;20024;-74
2021/11/28 05:48:04;;;;;;;42.90;18.33;;;;;;;1.45;100.00;99349.97;5091861;28;20076;-74
2021/11/28 05:50:48;;;;;;;44.63;18.70;;;;;;;1.46;100.00;99363.00;5091556;28;20047;-74
2021/11/28 05:53:15;;;;;;;43.58;18.95;;;;;;;1.53;100.00;99375.59;5090848;28;20381;-74
2021/11/28 05:55:41;;;;;;;39.13;17.85;;;;;;;1.42;100.00;99355.53;5073649;28;20064;-74
2021/11/28 05:58:08;;;;;;;39.33;17.98;;;;;;;1.45;100.00;99365.75;5090778;28;20513;-74
2021/11/28 06:00:34;;;;;;;38.63;17.63;;;;;;;1.42;100.00;99374.75;5090802;28;20028;-74
2021/11/28 06:03:02;;;;;;;39.05;17.08;;;;;;;1.43;100.00;99384.31;5090894;28;20084;-74
2021/11/28 06:05:39;;;;;;;40.20;18.80;;;;;;;1.48;100.00;99397.06;5091559;28;20036;-74
2021/11/28 06:08:29;;;;;;;40.97;16.63;;;;;;;1.47;100.00;99400.66;5093271;28;20531;-74
2021/11/28 06:10:58;;;;;;;41.83;18.27;;;;;;;1.54;100.00;99414.91;5090579;28;20469;-74
2021/11/28 06:13:24;;;;;;;42.50;18.90;;;;;;;1.53;100.00;99418.53;5090655;28;20085;-74
2021/11/28 06:16:13;;;;;;;38.65;17.85;;;;;;;1.55;100.00;99424.47;5099999;28;20105;-74
2021/11/28 06:18:57;;;;;;;43.72;17.90;;;;;;;1.45;100.00;99398.16;5090965;28;20492;-74
2021/11/28 06:21:41;;;;;;;44.08;18.85;;;;;;;1.41;100.00;99395.94;5091717;28;20116;-74
2021/11/28 06:24:38;;;;;;;46.85;20.40;;;;;;;1.38;100.00;99386.53;5090620;28;20135;-74
2021/11/28 06:27:09;;;;;;;43.15;19.35;;;;;;;1.44;100.00;99400.94;5090194;28;20110;-74
2021/11/28 06:29:35;;;;;;;44.40;20.23;;;;;;;1.46;100.00;99404.25;5090201;28;20140;-74
2021/11/28 06:32:01;;;;;;;51.92;21.73;;;;;;;1.45;100.00;99416.59;5090169;28;20035;-73
2021/11/28 06:34:39;;;;;;;46.38;20.75;;;;;;;1.51;100.00;99438.88;5090973;28;20044;-74
2021/11/28 06:37:40;;;;;;;52.67;23.23;;;;;;;1.50;100.00;99436.34;5109358;28;20066;-74
2021/11/28 06:40:25;;;;;;;46.78;20.42;;;;;;;1.48;100.00;99439.97;5092840;28;20100;-74
2021/11/28 06:42:57;;;;;;;52.20;21.48;;;;;;;1.46;100.00;99435.81;5073976;28;20051;-74
2021/11/28 06:45:22;;;;;;;;;;;;;;;1.44;100.00;99448.28;5090159;28;20374;-74
2021/11/28 06:47:49;;;;;;;38.83;17.50;;;;;;;1.40;100.00;99439.81;5089717;28;19908;-74
2021/11/28 06:50:15;;;;;;;42.80;18.70;;;;;;;1.50;100.00;99462.66;5073097;28;20613;-75
2021/11/28 06:53:00;;;;;;;42.13;19.48;;;;;;;1.47;100.00;99469.88;5091073;28;20373;-75
2021/11/28 06:55:25;;;;;;;40.45;17.25;;;;;;;1.55;100.00;99474.47;5090478;28;20048;-75
2021/11/28 06:58:15;;;;;;;37.30;17.05;;;;;;;1.52;100.00;99464.19;5089691;28;20538;-75
2021/11/28 07:00:41;;;;;;;38.95;18.08;;;;;;;1.49;100.00;99446.06;5089771;28;20036;-74
2021/11/28 07:03:07;;;;;;;;;;;;;;;1.49;100.00;99443.44;5073364;28;20028;-74
2021/11/28 07:05:54;;;;;;;39.08;17.27;;;;;;;1.38;100.00;99407.56;5089100;28;19912;-74
2021/11/28 07:08:20;;;;;;;42.40;18.63;;;;;;;1.44;100.00;99414.06;5089456;28;20109;-75
2021/11/28 07:10:47;;;;;;;41.63;17.77;;;;;;;1.42;100.00;99410.75;5089545;28;20028;-75
2021/11/28 07:13:15;;;;;;;37.88;16.85;;;;;;;1.41;100.00;99409.94;5089113;28;20153;-75
2021/11/28 07:15:41;;;;;;;37.28;17.45;;;;;;;1.40;100.00;99402.97;5089108;28;20028;-75
2021/11/28 07:18:15;;;;;;;39.20;17.65;;;;;;;1.44;100.00;99419.34;5089090;28;20066;-75
2021/11/28 07:20:59;;;;;;;40.97;17.42;;;;;;;1.41;100.00;99414.34;5089448;28;20667;-75
2021/11/28 07:23:25;;;;;;;38.10;17.20;;;;;;;1.43;100.00;99420.31;5089288;28;20089;-76
2021/11/28 07:25:56;;;;;;;40.40;18.08;;;;;;;1.45;100.00;99426.25;5073125;28;20111;-75
2021/11/28 07:28:29;;;;;;;37.70;16.83;;;;;;;1.39;100.00;99408.41;5073435;28;20058;-75
2021/11/28 07:30:55;;;;;;;41.80;17.90;;;;;;;1.39;100.00;99418.91;5089293;28;20468;-75
2021/11/28 07:33:52;;;;;;;37.42;17.02;;;;;;;1.39;100.00;99425.00;5089519;28;20050;-75
2021/11/28 07:36:33;;;;;;;38.10;16.95;;;;;;;1.41;100.00;99438.03;5089262;28;20346;-75
2021/11/28 07:39:01;;;;;;;37.83;19.00;;;;;;;1.39;100.00;99439.97;5089058;28;20032;-75
2021/11/28 07:41:26;;;;;;;39.53;18.80;;;;;;;1.50;100.00;99468.78;5072269;28;20519;-75
2021/11/28 07:43:59;;;;;;;37.50;18.13;;;;;;;1.52;100.00;99479.97;5088538;28;20050;-75
2021/11/28 07:46:43;;;;;;;41.40;18.33;;;;;;;1.54;100.00;99480.66;5090277;28;20397;-75
2021/11/28 07:49:16;;;;;;;43.45;19.67;;;;;;;1.45;100.00;99449.91;5088964;28;20046;-76
2021/11/28 07:51:42;;;;;;;43.70;18.02;;;;;;;1.50;100.00;99471.41;5088710;28;20039;-75
2021/11/28 07:54:13;;;;;;;40.75;18.00;;;;;;;1.43;100.00;99452.69;5088368;28;20067;-75
2021/11/28 07:56:40;;;;;;;43.67;19.55;;;;;;;1.47;100.00;99467.25;5072040;28;20028;-75
2021/11/28 07:59:23;;;;;;;41.22;19.58;;;;;;;1.47;100.00;99480.41;5090080;28;20097;-76
2021/11/28 08:01:50;;;;;;;39.45;19.00;;;;;;;1.51;100.00;99498.53;5071993;28;20828;-75
2021/11/28 08:04:34;;;;;;;49.40;20.15;;;;;;;1.48;100.00;99513.63;5088977;28;20043;-75
2021/11/28 08:07:18;;;;;;;48.75;20.40;;;;;;;1.55;100.00;99542.84;5089002;28;20473;-75
2021/11/28 08:10:04;;;;;;;55.78;21.88;;;;;;;1.48;100.00;99534.66;5089901;28;20397;-75
2021/11/28 08:12:29;;;;;;;49.17;20.92;;;;;;;1.56;100.00;99570.81;5088527;28;20040;-75
2021/11/28 08:14:55;;;;;;;48.97;19.20;;;;;;;1.56;100.00;99573.44;5089305;28;20046;-75
2021/11/28 08:17:21;;;;;;;44.72;21.13;;;;;;;1.60;100.00;99590.63;5089430;28;20294;-75
2021/11/28 08:19:46;;;;;;;46.80;19.20;;;;;;;1.64;100.00;99601.75;5088586;28;20448;-75
2021/11/28 08:22:12;;;;;;;52.25;21.38;;;;;;;1.60;100.00;99606.41;5088547;28;20092;-75
2021/11/28 08:24:38;;;;;;;49.00;20.98;;;;;;;1.72;100.00;99643.16;5089186;28;20074;-75
2021/11/28 08:27:04;;;;;;;46.60;23.10;;;;;;;1.74;100.00;99655.22;5071611;28;20092;-76
2021/11/28 08:29:31;;;;;;;37.85;18.00;;;;;;;1.78;100.00;99676.84;5088431;28;20050;-75
2021/11/28 08:31:59;;;;;;;38.30;18.73;;;;;;;1.84;100.00;99700.00;5089878;28;20032;-75
2021/11/28 08:34:31;;;;;;;37.67;19.52;;;;;;;1.81;100.00;99698.47;5093366;28;20048;-75
2021/11/28 08:37:07;;;;;;;42.72;20.60;;;;;;;1.84;100.00;99721.88;5092550;28;20028;-75
2021/11/28 08:39:33;;;;;;;40.23;18.97;;;;;;;1.92;100.00;99736.19;5092290;28;20032;-75
2021/11/28 08:41:59;;;;;;;38.30;17.90;;;;;;;1.94;100.00;99750.06;5093282;28;20335;-75
2021/11/28 08:44:25;;;;;;;38.50;19.10;;;;;;;1.94;100.00;99756.16;5093109;28;20468;-75
2021/11/28 08:46:50;;;;;;;35.30;17.37;;;;;;;1.97;100.00;99765.59;5092292;28;20066;-75
2021/11/28 08:49:17;;;;;;;30.15;14.50;;;;;;;1.97;100.00;99766.44;5092368;28;20036;-76
2021/11/28 08:51:42;;;;;;;32.67;15.68;;;;;;;1.97;100.00;99773.50;5091877;28;20373;-75
2021/11/28 08:54:13;;;;;;;35.47;16.70;;;;;;;2.08;100.00;99794.47;5091732;28;20047;-75
2021/11/28 08:56:40;;;;;;;27.48;13.57;;;;;;;2.04;100.00;99777.28;5093037;28;20028;-75
2021/11/28 08:59:05;;;;;;;30.38;13.73;;;;;;;1.99;100.00;99758.38;5092152;28;20027;-75
2021/11/28 09:01:30;;;;;;;26.83;13.88;;;;;;;2.01;100.00;99767.00;5092178;28;20040;-75
2021/11/28 09:03:56;;;;;;;23.77;12.23;;;;;;;1.96;100.00;99751.59;5091657;28;20040;-76
2021/11/28 09:06:21;;;;;;;26.30;13.40;;;;;;;2.08;100.00;99769.00;5092828;28;20020;-75
2021/11/28 09:08:47;;;;;;;26.60;13.13;;;;;;;1.91;100.00;99724.81;5092796;28;20032;-76
2021/11/28 09:11:14;;;;;;;21.88;12.38;;;;;;;2.05;100.00;99742.91;5091733;28;20048;-75
2021/11/28 09:13:39;;;;;;;24.05;12.88;;;;;;;2.09;100.00;99743.47;5090301;28;20763;-75
2021/11/28 09:16:08;;;;;;;24.40;13.10;;;;;;;2.01;100.00;99720.44;5090116;28;20127;-75
2021/11/28 09:18:41;;;;;;;23.15;11.75;;;;;;;2.02;100.00;99716.84;5091528;28;20040;-75
2021/11/28 09:21:07;;;;;;;27.27;13.23;;;;;;;2.10;100.00;99724.06;5091770;28;20044;-75
2021/11/28 09:26:18;;;;;;;21.67;11.52;;;;;;;2.09;100.00;99707.44;5092520;28;20064;-74
2021/11/28 09:28:43;;;;;;;23.55;13.18;;;;;;;2.09;100.00;99696.91;5091599;28;20036;-74
2021/11/28 09:31:10;;;;;;;18.38;10.35;;;;;;;2.10;100.00;99690.66;5091419;28;20059;-74
2021/11/28 09:33:39;;;;;;;23.38;12.45;;;;;;;2.04;100.00;99657.00;5091203;28;20081;-75
2021/11/28 09:36:06;;;;;;;18.20;9.77;;;;;;;1.99;100.00;99632.88;5074529;28;20479;-75
2021/11/28 09:38:31;;;;;;;;;;;;;;;2.08;100.00;99634.69;5091868;28;20028;-75
2021/11/28 09:41:02;;;;;;;24.08;10.82;;;;;;;1.94;100.00;99592.94;5074486;28;20341;-75
2021/11/28 09:43:30;;;;;;;22.63;11.57;;;;;;;1.98;100.00;99594.34;5090161;28;20043;-75
2021/11/28 09:45:58;;;;;;;19.10;9.80;;;;;;;1.94;100.00;99579.78;5091213;28;20482;-75
2021/11/28 09:48:24;;;;;;;18.33;10.15;;;;;;;1.92;100.00;99565.09;5074236;28;20373;-75
2021/11/28 09:50:50;;;;;;;21.67;10.40;;;;;;;1.91;100.00;99566.91;5074398;28;20032;-75
2021/11/28 09:53:17;;;;;;;22.40;10.25;;;;;;;1.99;100.00;99580.22;5073985;28;20448;-75
2021/11/28 09:55:43;;;;;;;23.30;12.77;;;;;;;1.95;100.00;99565.66;5090577;28;20048;-75
2021/11/28 09:58:09;;;;;;;26.20;12.80;;;;;;;2.01;100.00;99587.97;5090809;28;20461;-75
2021/11/28 10:00:36;;;;;;;25.75;12.80;;;;;;;2.05;100.00;99600.72;5090959;28;20043;-76
2021/11/28 10:03:02;;;;;;;25.80;11.88;;;;;;;2.02;100.00;99610.72;5090862;28;20443;-75
2021/11/28 10:05:28;;;;;;;25.45;13.00;;;;;;;2.16;100.00;99646.34;5091452;28;20031;-75
2021/11/28 10:07:53;;;;;;;33.47;15.77;;;;;;;2.20;100.00;99655.63;5090863;28;20036;-75
2021/11/28 10:10:21;;;;;;;30.08;14.30;;;;;;;2.21;100.00;99676.56;5073863;28;20052;-75
2021/11/28 10:12:51;;;;;;;28.73;13.90;;;;;;;2.24;100.00;99683.38;5073823;28;20039;-75
2021/11/28 10:15:28;;;;;;;27.58;13.95;;;;;;;2.18;100.00;99684.75;5091235;28;20036;-76
2021/11/28 10:17:54;;;;;;;30.42;14.52;;;;;;;2.18;100.00;99694.44;5091580;28;20441;-76
2021/11/28 10:20:23;;;;;;;24.92;14.60;;;;;;;2.13;100.00;99691.38;5090643;28;20040;-76
2021/11/28 10:22:50;;;;;;;31.55;14.07;;;;;;;2.13;100.00;99702.75;5090310;28;20404;-76
2021/11/28 10:25:22;;;;;;;26.85;13.20;;;;;;;2.17;100.00;99719.94;5090127;28;20031;-76
2021/11/28 10:27:50;;;;;;;22.42;12.13;;;;;;;2.14;100.00;99720.22;5090468;28;20047;-76
2021/11/28 10:30:30;;;;;;;19.98;11.50;;;;;;;2.09;100.00;99711.88;5090187;28;20431;-76
2021/11/28 10:33:04;;;;;;;19.33;9.70;;;;;;;2.12;100.00;99714.25;5091313;28;20036;-76
2021/11/28 10:35:30;;;;;;;17.23;9.00;;;;;;;1.99;100.00;99684.66;5089915;28;20075;-76
2021/11/28 10:37:55;;;;;;;15.13;8.20;;;;;;;2.00;100.00;99679.28;5090263;28;20063;-76
2021/11/28 10:40:27;;;;;;;14.40;7.53;;;;;;;1.96;100.00;99662.09;5091190;28;20434;-76
2021/11/28 10:43:16;;;;;;;11.60;7.10;;;;;;;2.03;100.00;99663.22;5090339;28;20122;-76
2021/11/28 10:45:50;;;;;;;15.32;8.95;;;;;;;2.06;100.00;99634.00;5089862;28;20024;-76
2021/11/28 10:48:23;;;;;;;13.52;8.25;;;;;;;2.14;100.00;99641.22;5091089;28;20135;-76
2021/11/28 10:50:49;;;;;;;13.23;7.85;;;;;;;2.05;100.00;99606.00;5090028;28;20032;-77
2021/11/28 10:53:21;;;;;;;15.48;7.82;;;;;;;2.10;100.00;99611.69;5089732;28;20479;-77
2021/11/28 10:55:53;;;;;;;16.70;8.30;;;;;;;2.08;100.00;99584.69;5090173;28;20124;-76
2021/11/28 10:58:25;;;;;;;16.35;8.43;;;;;;;2.15;100.00;99584.13;5072820;28;20184;-76
2021/11/28 11:00:50;;;;;;;14.60;7.85;;;;;;;2.16;100.00;99565.56;5089882;28;20057;-76
2021/11/28 11:03:21;;;;;;;13.00;7.50;;;;;;;2.15;100.00;99540.16;5090654;28;20468;-77
2021/11/28 11:05:53;;;;;;;12.02;7.00;;;;;;;2.22;100.00;99516.75;5072486;28;20515;-76
2021/11/28 11:08:24;;;;;;;11.65;6.63;;;;;;;2.25;100.00;99505.97;5089397;28;20042;-76
2021/11/28 11:11:05;;;;;;;13.30;8.05;;;;;;;2.22;100.00;99487.78;5089635;28;20197;-76
2021/11/28 11:13:30;;;;;;;13.20;7.30;;;;;;;2.26;100.00;99465.47;5090329;28;20465;-76
2021/11/28 11:15:56;;;;;;;12.23;6.63;;;;;;;2.22;100.00;99448.28;5089303;28;20036;-77
2021/11/28 11:18:23;;;;;;;13.50;6.20;;;;;;;2.14;100.00;99429.75;5089443;28;20028;-76
2021/11/28 11:21:02;;;;;;;12.90;6.75;;;;;;;2.21;100.00;99431.66;5089382;28;20036;-76
2021/11/28 11:23:34;;;;;;;11.82;6.55;;;;;;;2.16;100.00;99417.28;5072258;28;20035;-76
2021/11/28 11:26:21;;;;;;;14.35;7.47;;;;;;;2.13;100.00;99417.53;5090239;28;20024;-76
2021/11/28 11:29:11;;;;;;;12.73;7.03;;;;;;;2.18;100.00;99417.94;5089222;28;20040;-76
2021/11/28 11:31:41;;;;;;;12.55;6.93;;;;;;;2.20;100.00;99413.34;5089330;28;20063;-76
2021/11/28 11:34:21;;;;;;;14.15;6.45;;;;;;;2.32;100.00;99435.94;5072073;28;20036;-76
2021/11/28 11:37:04;;;;;;;10.60;5.95;;;;;;;2.09;100.00;99385.41;5089926;28;20461;-76
2021/11/28 11:39:32;;;;;;;12.45;6.55;;;;;;;2.11;100.00;99383.47;5090042;28;20067;-76